Latest Weather Observations for Newman Airport

IDW60801

Issued at 9:23 pm WST Friday 23 April 2021 (issued every 10 minutes, with the page automatically refreshed every 10 minutes)

About weather observations | Map of weather stations | Latest weather observations for WA | Other Formats
Station Details ID: 007176 Name: NEWMAN AERO Lat: -23.42 Lon: 119.80 Height: 524.0 m
Data from the previous 72 hours. | See also: Recent months at Newman Airport
Date/Time
WST
Temp
°C
App
Temp
°C
Dew
Point
°C
Rel
Hum
%
Delta-T
°C
Wind Press
QNH
hPa
Press
MSL
hPa
Rain since
9am
mm
Dir  Spd
km/h
Gust
km/h
Spd
kts
Gust
kts
23/09:00pm 18.9 16.2 3.9 37 7.3 E 7 9 4 5 1020.2 1017.1 0.0
23/08:30pm 20.1 16.9 3.3 33 8.2 E 9 11 5 6 1019.9 1016.7 0.0
23/08:00pm 20.2 16.7 3.4 33 8.2 ESE 11 11 6 6 1019.6 1016.5 0.0
23/07:30pm 21.4 18.2 3.1 30 8.9 SE 9 11 5 6 1019.4 1016.3 0.0
23/07:00pm 21.7 18.7 3.9 31 8.8 ESE 9 11 5 6 1019.1 1016.0 0.0
23/06:30pm 22.9 19.8 3.4 28 9.7 E 9 11 5 6 1018.6 1015.5 0.0
23/06:00pm 25.1 22.0 1.3 21 11.5 E 7 9 4 5 1018.4 1015.3 0.0
23/05:30pm 27.2 23.1 0.1 17 13.0 E 11 17 6 9 1018.0 1014.8 0.0
23/05:00pm 28.3 23.0 -0.8 15 13.9 E 17 24 9 13 1017.7 1014.6 0.0
23/04:30pm 28.7 24.2 -0.5 15 14.0 ENE 13 20 7 11 1017.4 1014.3 0.0
23/04:00pm 29.0 23.5 -2.2 13 14.6 ENE 17 24 9 13 1017.2 1014.1 0.0
23/03:30pm 29.4 23.5 -1.9 13 14.8 E 19 26 10 14 1017.2 1014.1 0.0
23/03:00pm 29.4 23.9 -1.9 13 14.7 ESE 17 26 9 14 1017.2 1014.1 0.0
23/02:30pm 29.1 23.2 -2.1 13 14.6 E 19 32 10 17 1017.5 1014.4 0.0
23/02:00pm 29.2 24.5 -2.0 13 14.7 ESE 13 28 7 15 1017.6 1014.5 0.0
23/01:30pm 29.1 23.6 -2.1 13 14.6 SE 17 30 9 16 1018.1 1014.9 0.0
23/01:00pm 29.0 23.0 -1.2 14 14.4 ESE 20 32 11 17 1018.4 1015.3 0.0
23/12:30pm 28.1 22.9 -0.1 16 13.6 E 17 26 9 14 1018.8 1015.7 0.0
23/12:00pm 28.0 22.8 -0.1 16 13.5 ENE 17 26 9 14 1019.3 1016.2 0.0
23/11:30am 27.5 22.1 1.1 18 13.0 ENE 19 28 10 15 1020.0 1016.8 0.0
23/11:00am 27.0 20.9 0.7 18 12.7 ENE 22 32 12 17 1020.6 1017.5 0.0
23/10:30am 26.5 20.7 2.4 21 12.0 ENE 22 30 12 16 1020.9 1017.8 0.0
23/10:00am 25.4 20.2 3.4 24 11.1 E 20 30 11 16 1021.0 1017.9 0.0
23/09:30am 24.0 18.5 3.9 27 10.1 E 22 30 12 16 1021.1 1018.0 0.0
23/09:00am 22.8 17.3 3.9 29 9.4 ENE 22 32 12 17 1021.0 1017.9 0.0
23/08:30am 22.1 16.9 3.7 30 9.1 ENE 20 32 11 17 1020.9 1017.8 0.0
23/08:00am 20.4 16.4 4.8 36 7.8 ENE 15 20 8 11 1020.9 1017.8 0.0
23/07:30am 17.1 14.4 5.7 47 5.7 E 9 13 5 7 1020.7 1017.6 0.0
23/07:00am 14.0 13.1 5.9 58 4.0 CALM 0 0 0 0 1020.5 1017.4 0.0
23/06:30am 11.2 9.5 6.1 71 2.5 ESE 4 7 2 4 1020.1 1017.0 0.0
23/06:00am 11.0 10.1 6.0 71 2.4 CALM 0 2 0 1 1019.7 1016.6 0.0
23/05:30am 10.9 10.0 5.9 71 2.4 CALM 0 0 0 0 1019.4 1016.3 0.0
23/05:00am 11.7 10.7 5.8 67 2.8 CALM 0 0 0 0 1019.2 1016.1 0.0
23/04:30am 13.0 11.8 4.7 57 3.9 CALM 0 0 0 0 1019.2 1016.1 0.0
23/04:00am 12.4 9.9 4.9 60 3.5 S 7 9 4 5 1019.1 1016.0 0.0
23/03:30am 12.9 10.0 4.8 58 3.8 SSE 9 11 5 6 1018.9 1015.8 0.0
23/03:00am 12.6 9.9 5.5 62 3.4 SSE 9 9 5 5 1018.9 1015.8 0.0
23/02:30am 13.1 10.9 5.5 60 3.7 S 6 9 3 5 1019.0 1015.9 0.0
23/02:00am 13.3 11.1 5.2 58 3.9 SE 6 7 3 4 1019.0 1015.9 0.0
23/01:30am 13.7 11.7 6.1 60 3.7 SSE 6 7 3 4 1019.2 1016.1 0.0
23/01:00am 14.5 12.5 6.1 57 4.1 SSE 6 6 3 3 1019.4 1016.3 0.0
23/12:30am 16.0 13.5 4.7 47 5.5 ESE 7 9 4 5 1019.4 1016.3 0.0
23/12:00am 15.5 13.3 6.2 54 4.6 E 7 13 4 7 1019.6 1016.5 0.0
 
Date/Time
WST
Temp
°C
App
Temp
°C
Dew
Point
°C
Rel
Hum
%
Delta-T
°C
Wind Press
QNH
hPa
Press
MSL
hPa
Rain since
9am
mm
Dir  Spd
km/h
Gust
km/h
Spd
kts
Gust
kts
22/11:30pm 15.0 14.3 7.1 59 4.0 CALM 0 0 0 0 1019.9 1016.7 0.0
22/11:00pm 15.9 14.6 6.1 52 4.9 E 2 6 1 3 1019.7 1016.6 0.0
22/10:30pm 16.3 14.3 7.0 54 4.7 E 7 9 4 5 1020.0 1016.8 0.0
22/10:00pm 16.3 14.3 7.3 55 4.6 E 7 7 4 4 1020.3 1017.2 0.0
22/09:30pm 17.2 15.3 6.7 50 5.3 E 6 7 3 4 1020.3 1017.2 0.0
22/09:00pm 18.1 15.8 5.7 44 6.2 E 7 9 4 5 1020.2 1017.1 0.0
22/08:30pm 19.1 16.2 4.5 38 7.2 E 9 9 5 5 1020.2 1017.1 0.0
22/08:00pm 19.8 17.0 5.1 38 7.4 E 9 11 5 6 1019.9 1016.7 0.0
22/07:30pm 20.2 17.5 5.8 39 7.3 E 9 11 5 6 1019.5 1016.4 0.0
22/07:00pm 21.5 18.9 4.1 32 8.6 E 7 9 4 5 1019.2 1016.1 0.0
22/06:30pm 23.2 20.6 4.2 29 9.6 E 7 9 4 5 1018.9 1015.8 0.0
22/06:00pm 25.2 21.5 0.0 19 11.9 E 9 11 5 6 1018.4 1015.3 0.0
22/05:30pm 26.9 22.2 -1.9 15 13.3 E 13 19 7 10 1017.9 1014.7 0.0
22/05:00pm 28.2 22.6 -2.8 13 14.2 E 17 26 9 14 1017.7 1014.6 0.0
22/04:30pm 28.7 22.5 -3.5 12 14.7 E 20 28 11 15 1017.4 1014.3 0.0
22/04:00pm 29.2 23.6 -3.1 12 14.9 E 17 24 9 13 1017.5 1014.4 0.0
22/03:30pm 29.3 24.8 -3.0 12 14.9 E 11 24 6 13 1017.6 1014.5 0.0
22/03:00pm 29.4 23.9 -1.9 13 14.7 E 17 28 9 15 1017.7 1014.6 0.0
22/02:30pm 29.4 23.9 -1.9 13 14.8 E 17 26 9 14 1017.7 1014.6 0.0
22/02:00pm 29.1 24.1 -1.1 14 14.4 NE 15 24 8 13 1018.1 1014.9 0.0
22/01:30pm 28.7 22.8 -2.4 13 14.5 ESE 19 28 10 15 1018.4 1015.3 0.0
22/01:00pm 28.4 22.8 -2.6 13 14.3 ESE 17 28 9 15 1018.7 1015.6 0.0
22/12:30pm 28.6 22.7 -2.5 13 14.4 E 19 28 10 15 1019.1 1016.0 0.0
22/12:00pm 28.8 24.3 -3.4 12 14.7 ENE 11 20 6 11 1019.6 1016.5 0.0
22/11:30am 28.2 22.6 -2.8 13 14.3 NE 17 26 9 14 1020.1 1017.0 0.0
22/11:00am 27.9 22.4 -2.0 14 13.9 ENE 17 26 9 14 1020.3 1017.2 0.0
22/10:30am 27.3 22.7 -0.7 16 13.3 NNE 13 24 7 13 1020.7 1017.6 0.0
22/10:00am 26.0 22.2 2.0 21 11.8 NNE 11 17 6 9 1021.2 1018.1 0.0
22/09:30am 24.6 21.3 2.7 24 10.8 NE 9 13 5 7 1021.3 1018.2 0.0
22/09:00am 23.1 20.5 4.1 29 9.5 NE 7 9 4 5 1021.3 1018.2 0.0
22/08:30am 21.4 20.2 4.5 33 8.5 CALM 0 0 0 0 1021.0 1017.9 0.0
22/08:00am 17.9 17.1 6.7 48 5.7 CALM 0 0 0 0 1020.9 1017.8 0.0
22/07:30am 15.2 14.5 7.0 58 4.1 CALM 0 0 0 0 1020.8 1017.7 0.0
22/07:00am 13.1 11.2 6.5 64 3.2 SW 6 7 3 4 1020.6 1017.5 0.0
22/06:30am 11.4 9.3 6.5 72 2.4 SW 7 9 4 5 1020.3 1017.2 0.0
22/06:00am 11.7 9.7 6.4 70 2.6 SW 6 9 3 5 1020.2 1017.1 0.0
22/05:30am 12.1 9.9 6.4 68 2.8 SW 7 9 4 5 1019.7 1016.6 0.0
22/05:00am 12.1 9.6 6.6 69 2.7 SW 9 9 5 5 1019.2 1016.1 0.0
22/04:30am 12.1 9.8 7.4 73 2.3 SSE 9 9 5 5 1019.0 1015.9 0.0
22/04:00am 12.5 10.7 7.8 73 2.4 SSE 7 7 4 4 1018.8 1015.7 0.0
22/03:30am 12.8 11.1 7.7 71 2.6 SSE 6 7 3 4 1018.8 1015.7 0.0
22/03:00am 13.1 11.3 8.0 71 2.6 S 7 7 4 4 1018.8 1015.7 0.0
22/02:30am 13.6 11.9 8.2 70 2.8 SW 7 9 4 5 1019.0 1015.9 0.0
22/02:00am 14.1 12.1 7.2 63 3.5 SW 7 9 4 5 1019.2 1016.1 0.0
22/01:30am 14.3 12.1 7.8 65 3.3 SE 9 9 5 5 1019.4 1016.3 0.0
22/01:00am 14.3 14.0 8.5 68 3.0 CALM 0 0 0 0 1019.3 1016.2 0.0
22/12:30am 14.9 14.6 8.8 67 3.2 CALM 0 0 0 0 1019.5 1016.4 0.0
22/12:00am 15.4 15.3 9.5 68 3.1 CALM 0 0 0 0 1019.6 1016.5 0.0
 
Date/Time
WST
Temp
°C
App
Temp
°C
Dew
Point
°C
Rel
Hum
%
Delta-T
°C
Wind Press
QNH
hPa
Press
MSL
hPa
Rain since
9am
mm
Dir  Spd
km/h
Gust
km/h
Spd
kts
Gust
kts
21/11:30pm 15.8 15.5 8.8 63 3.7 CALM 0 0 0 0 1019.7 1016.6 0.0
21/11:00pm 16.2 16.1 9.4 64 3.6 CALM 0 0 0 0 1019.9 1016.7 0.0
21/10:30pm 16.6 15.8 9.8 64 3.7 E 4 6 2 3 1020.1 1017.0 0.0
21/10:00pm 17.3 17.3 9.7 61 4.1 CALM 0 0 0 0 1020.2 1017.1 0.0
21/09:30pm 18.2 17.1 8.5 53 5.1 E 4 6 2 3 1020.2 1017.1 0.0
21/09:00pm 19.6 18.1 8.6 49 5.9 E 6 7 3 4 1020.2 1017.1 0.0
21/08:30pm 21.3 18.4 6.4 38 7.7 E 11 13 6 7 1020.1 1017.0 0.0
21/08:00pm 21.7 18.8 6.4 37 7.9 E 11 13 6 7 1020.0 1016.8 0.0
21/07:30pm 22.4 19.9 6.6 36 8.3 E 9 11 5 6 1019.6 1016.5 0.0
21/07:00pm 23.5 20.9 5.9 32 9.2 ESE 9 11 5 6 1019.3 1016.2 0.0
21/06:30pm 24.4 21.6 5.2 29 9.9 ESE 9 11 5 6 1019.1 1016.0 0.0
21/06:00pm 25.8 22.9 4.9 26 10.8 SE 9 13 5 7 1018.8 1015.7 0.0
21/05:30pm 27.6 23.7 3.3 21 12.4 ESE 13 19 7 10 1018.5 1015.4 0.0
21/05:00pm 28.4 25.5 2.6 19 13.1 E 7 11 4 6 1018.2 1015.0 0.0
21/04:30pm 28.9 26.1 3.0 19 13.3 E 7 11 4 6 1018.0 1014.8 0.0
21/04:00pm 28.7 24.7 2.8 19 13.2 E 13 24 7 13 1017.7 1014.6 0.0
21/03:30pm 29.0 26.0 2.3 18 13.5 S 7 11 4 6 1017.7 1014.6 0.0
21/03:00pm 29.0 24.7 3.1 19 13.3 ESE 15 22 8 12 1017.6 1014.5 0.0
21/02:30pm 29.4 26.3 3.4 19 13.4 ENE 9 17 5 9 1017.9 1014.7 0.0
21/02:00pm 29.0 25.0 3.1 19 13.3 ENE 13 22 7 12 1017.9 1014.7 0.0
21/01:30pm 28.9 25.3 3.0 19 13.3 SE 11 26 6 14 1018.1 1014.9 0.0
21/01:00pm 28.9 24.9 3.0 19 13.2 ESE 13 24 7 13 1018.2 1015.0 0.0
21/12:30pm 29.4 25.1 3.4 19 13.4 E 15 28 8 15 1018.5 1015.4 0.0
21/12:00pm 28.5 23.3 3.4 20 12.9 E 20 32 11 17 1018.8 1015.7 0.0
21/11:30am 28.1 23.4 3.0 20 12.8 ENE 17 22 9 12 1019.1 1016.0 0.0
21/11:00am 28.0 22.8 3.7 21 12.5 ENE 20 32 11 17 1019.3 1016.2 0.0
21/10:30am 27.4 22.4 3.8 22 12.1 ENE 19 28 10 15 1019.6 1016.5 0.0
21/10:00am 26.1 21.3 4.6 25 11.1 ENE 19 30 10 16 1020.1 1017.0 0.0
21/09:30am 24.1 21.1 7.7 35 8.9 ENE 13 20 7 11 1020.3 1017.2 0.0
21/09:00am 23.0 20.9 8.3 39 8.0 ESE 9 15 5 8 1020.3 1017.2 0.2
21/08:30am 20.7 19.7 10.2 51 5.8 S 6 9 3 5 1020.4 1017.3 0.2
21/08:00am 18.5 17.5 10.3 59 4.5 SSW 6 7 3 4 1020.2 1017.1 0.2
21/07:30am 16.5 15.2 10.1 66 3.5 SW 7 11 4 6 1020.0 1016.8 0.2
21/07:00am 14.2 13.1 9.8 75 2.3 SW 6 9 3 5 1019.6 1016.5 0.2
21/06:30am 12.7 11.4 10.1 84 1.4 WSW 7 9 4 5 1019.4 1016.3 0.2
21/06:00am 12.6 11.0 10.3 86 1.2 WSW 9 11 5 6 1019.1 1016.0 0.2
21/05:30am 12.9 11.7 10.4 85 1.3 WSW 7 9 4 5 1018.8 1015.7 0.2
21/05:00am 13.8 13.3 10.6 81 1.7 WSW 4 7 2 4 1018.5 1015.4 0.2
21/04:30am 13.3 11.8 10.7 84 1.4 WSW 9 11 5 6 1018.2 1015.0 0.2
21/04:00am 13.9 13.0 10.5 80 1.8 SSW 6 7 3 4 1017.9 1014.7 0.2
21/03:30am 14.1 14.4 10.9 81 1.7 CALM 0 0 0 0 1017.7 1014.6 0.2
21/03:00am 14.9 12.9 10.3 74 2.5 SSW 11 11 6 6 1017.7 1014.6 0.2
21/02:30am 14.5 12.6 10.5 77 2.2 SSW 11 13 6 7 1017.7 1014.6 0.2
21/02:00am 14.7 13.2 10.5 76 2.3 SW 9 11 5 6 1017.7 1014.6 0.2
21/01:30am 15.5 13.7 10.7 73 2.6 W 11 11 6 6 1017.7 1014.6 0.2
21/01:00am 16.0 15.0 11.0 72 2.7 W 7 13 4 7 1018.1 1014.9 0.2
21/12:30am 15.9 16.6 12.1 78 2.1 CALM 0 0 0 0 1018.2 1015.0 0.2
21/12:00am 16.4 15.4 11.1 71 2.9 SSE 7 9 4 5 1018.2 1015.0 0.2
 
Date/Time
WST
Temp
°C
App
Temp
°C
Dew
Point
°C
Rel
Hum
%
Delta-T
°C
Wind Press
QNH
hPa
Press
MSL
hPa
Rain since
9am
mm
Dir  Spd
km/h
Gust
km/h
Spd
kts
Gust
kts
20/11:30pm 16.5 15.8 11.4 72 2.8 NE 6 7 3 4 1018.3 1015.2 0.2
20/11:00pm 16.8 16.3 11.9 73 2.7 NNE 6 7 3 4 1018.6 1015.5 0.2
20/10:30pm 18.4 17.5 10.8 61 4.2 N 6 7 3 4 1018.7 1015.6 0.2
20/10:00pm 19.0 17.4 10.3 57 4.8 NE 9 13 5 7 1018.7 1015.6 0.2
20/09:30pm 19.2 17.6 10.2 56 5.0 ENE 9 11 5 6 1018.8 1015.7 0.2

Other formats

Comma delimited format used in spreadsheet applications
http://www.bom.gov.au/fwo/IDW60801/IDW60801.94317.axf

JavaScript Object Notation format (JSON) in row-major order
http://www.bom.gov.au/fwo/IDW60801/IDW60801.94317.json

Data quality

Most of these data are generated automatically and are frequently updated. Quality checks on data are not normally performed. It is possible for incorrect values to appear. Refer to information at About Latest Weather Observations and please check the disclaimer before using these data.